Time;durP1;ratioP1;P1;durP2;ratioP2;P2;SDS_P1;SDS_P2;PMS_P1;PMS_P2;Temp;Humidity;BMP_temperature;BMP_pressure;BME280_temperature;BME280_humidity;BME280_pressure;Samples;Min_cycle;Max_cycle;Signal;HPM_P1;HPM_P2
2021/01/07 04:34:32;;;;;;;3.87;2.15;;;;;;;3.11;89.38;98709.77;1833733;76;22796;-83
2021/01/07 05:12:56;;;;;;;5.15;2.30;;;;;;;2.96;89.60;98732.45;1794834;75;21137;-81
2021/01/07 07:30:13;;;;;;;4.28;2.52;;;;;;;3.74;84.56;98790.17;1693022;81;21222;-90
2021/01/07 07:32:44;;;;;;;7.22;2.60;;;;;;;3.73;84.64;98800.01;1663931;81;21931;-91
2021/01/07 07:35:23;;;;;;;4.90;2.75;;;;;;;3.68;85.16;98792.76;1732441;79;21185;-92
2021/01/07 07:37:52;;;;;;;5.42;2.60;;;;;;;3.59;85.29;98799.19;1694816;82;21640;-91
2021/01/07 07:40:41;;;;;;;7.95;2.90;;;;;;;3.59;85.57;98792.33;1703136;81;21215;-90
2021/01/07 07:43:09;;;;;;;7.83;3.15;;;;;;;3.53;85.97;98789.77;1614109;86;21221;-90
2021/01/07 07:45:45;;;;;;;9.93;3.47;;;;;;;3.53;86.21;98795.34;1675931;82;21157;-91
2021/01/07 07:48:13;;;;;;;9.90;3.12;;;;;;;3.51;86.44;98806.06;1692567;83;21215;-89
2021/01/07 07:50:41;;;;;;;7.30;3.15;;;;;;;3.55;86.47;98803.91;1706433;83;21244;-90
2021/01/07 07:53:12;;;;;;;8.65;3.15;;;;;;;3.60;86.34;98803.45;1712439;83;21209;-90
2021/01/07 07:55:41;;;;;;;8.95;3.17;;;;;;;3.67;86.50;98811.59;1709024;82;21232;-90
2021/01/07 07:58:15;;;;;;;5.22;2.77;;;;;;;3.68;86.24;98808.59;1758418;79;21150;-91
2021/01/07 08:00:54;;;;;;;5.85;3.42;;;;;;;3.64;86.40;98811.63;1767390;79;21198;-88
2021/01/07 08:03:28;;;;;;;6.53;3.05;;;;;;;3.70;86.12;98811.61;1748789;79;21125;-90
2021/01/07 08:06:00;;;;;;;5.83;3.25;;;;;;;3.79;86.04;98812.00;1774502;78;21130;-90
2021/01/07 08:08:35;;;;;;;6.05;3.27;;;;;;;3.87;86.10;98809.41;1807626;77;38441;-90
2021/01/07 08:11:04;;;;;;;4.65;2.77;;;;;;;3.86;85.88;98821.83;1803004;79;21605;-91
2021/01/07 08:13:33;;;;;;;5.28;2.98;;;;;;;3.85;85.90;98821.42;1765583;77;21125;-92
2021/01/07 08:16:01;;;;;;;6.28;3.02;;;;;;;3.92;85.78;98823.98;1724010;78;21171;-92
2021/01/07 08:18:30;;;;;;;6.67;2.80;;;;;;;3.94;85.89;98832.98;1713403;82;21168;-90
2021/01/07 08:21:10;;;;;;;5.28;2.47;;;;;;;3.98;85.79;98829.11;1651159;81;21945;-91
2021/01/07 08:23:39;;;;;;;5.12;2.25;;;;;;;3.98;85.57;98839.39;1630008;81;21463;-90
2021/01/07 08:26:12;;;;;;;3.92;2.22;;;;;;;4.03;85.62;98838.09;1662579;85;21197;-92
2021/01/07 08:28:47;;;;;;;5.20;2.60;;;;;;;4.16;85.70;98832.05;1809600;77;23226;-90
2021/01/07 08:31:23;;;;;;;5.67;3.22;;;;;;;4.16;85.83;98835.91;1812079;78;21118;-92
2021/01/07 08:33:53;;;;;;;8.03;3.17;;;;;;;4.21;85.28;98841.47;1714999;77;21162;-91
2021/01/07 08:36:21;;;;;;;8.95;3.75;;;;;;;4.39;86.11;98838.81;1698985;82;21118;-90
2021/01/07 08:38:54;;;;;;;7.35;3.35;;;;;;;4.46;85.60;98843.52;1695582;84;21192;-91
2021/01/07 08:41:30;;;;;;;7.50;3.80;;;;;;;4.57;86.03;98835.30;1630384;81;21210;-87
2021/01/07 08:44:03;;;;;;;8.28;3.60;;;;;;;4.68;85.88;98836.55;1674205;80;21177;-91
2021/01/07 08:46:51;;;;;;;8.85;4.20;;;;;;;4.77;85.91;98839.05;1673627;82;21167;-91
2021/01/07 08:49:21;;;;;;;7.92;3.47;;;;;;;4.78;85.44;98831.77;1712067;81;21161;-89
2021/01/07 08:51:53;;;;;;;7.45;3.33;;;;;;;4.88;85.20;98838.56;1753245;79;21149;-90
2021/01/07 08:54:23;;;;;;;10.78;4.25;;;;;;;4.90;84.46;98839.84;1728273;80;21365;-88
2021/01/07 08:56:52;;;;;;;14.53;5.80;;;;;;;4.94;84.35;98844.96;1646817;82;21654;-89
2021/01/07 08:59:26;;;;;;;9.68;4.40;;;;;;;4.97;84.74;98844.08;1674597;81;21164;-92
2021/01/07 09:02:08;;;;;;;8.90;4.05;;;;;;;5.05;84.59;98838.44;1666661;81;21291;-85
2021/01/07 09:04:43;;;;;;;8.45;4.15;;;;;;;5.01;83.96;98840.61;1645332;80;21202;-91
2021/01/07 09:07:21;;;;;;;8.63;4.22;;;;;;;5.06;84.25;98840.16;1722498;81;21217;-90
2021/01/07 09:09:56;;;;;;;9.33;4.53;;;;;;;5.09;84.46;98843.14;1730386;81;21687;-89
2021/01/07 09:12:32;;;;;;;6.75;3.62;;;;;;;5.14;84.27;98841.40;1714766;79;21604;-89
2021/01/07 09:17:56;;;;;;;6.85;3.35;;;;;;;5.30;83.96;98833.97;1806558;78;23588;-91
2021/01/07 09:20:41;;;;;;;6.17;3.15;;;;;;;5.25;83.92;98833.16;1754059;77;21713;-91
2021/01/07 09:23:14;;;;;;;4.83;2.83;;;;;;;5.27;84.02;98828.85;1741661;81;21177;-88
2021/01/07 09:25:41;;;;;;;6.85;3.00;;;;;;;5.39;84.18;98818.84;1754835;79;21695;-90
2021/01/07 09:28:09;;;;;;;7.33;2.83;;;;;;;5.48;84.42;98829.53;1762168;80;21121;-91
2021/01/07 09:30:37;;;;;;;5.45;2.72;;;;;;;5.61;83.73;98823.81;1700203;77;21160;-91
2021/01/07 09:33:05;;;;;;;4.80;2.40;;;;;;;5.68;83.89;98828.91;1697943;83;21162;-87
2021/01/07 09:35:33;;;;;;;6.03;3.30;;;;;;;5.74;83.24;98824.97;1694479;83;21144;-88
2021/01/07 09:38:02;;;;;;;6.62;3.37;;;;;;;5.76;82.22;98841.28;1696868;83;21643;-85
2021/01/07 09:40:30;;;;;;;6.80;3.33;;;;;;;5.83;82.00;98830.91;1706134;82;21262;-86
2021/01/07 09:43:02;;;;;;;5.72;3.12;;;;;;;5.79;81.75;98819.79;1705407;77;21257;31
2021/01/07 09:45:30;;;;;;;5.75;3.02;;;;;;;5.76;80.80;98823.23;1716546;83;21324;-93
2021/01/07 09:47:57;;;;;;;6.53;3.50;;;;;;;5.78;81.00;98826.64;1711847;83;21291;-92
2021/01/07 09:50:25;;;;;;;5.20;2.87;;;;;;;5.86;80.60;98829.59;1710637;83;21316;-93
2021/01/07 09:52:53;;;;;;;4.92;2.67;;;;;;;5.92;81.21;98816.62;1681588;85;21819;-91
2021/01/07 09:55:22;;;;;;;7.42;3.30;;;;;;;6.00;80.97;98824.33;1676840;85;21333;-93
2021/01/07 09:57:51;;;;;;;6.85;3.40;;;;;;;6.14;81.71;98816.83;1665187;81;21344;-94
2021/01/07 10:00:20;;;;;;;7.42;3.20;;;;;;;6.12;79.92;98812.56;1733912;79;21332;-94
2021/01/07 10:02:48;;;;;;;10.32;4.42;;;;;;;6.30;81.03;98818.80;1765386;81;21176;-93
2021/01/07 10:05:16;;;;;;;8.45;4.08;;;;;;;6.09;80.58;98776.05;1751283;81;21307;-93
2021/01/07 10:07:44;;;;;;;8.10;3.77;;;;;;;6.46;80.15;98811.70;1761711;81;21314;-93
2021/01/07 10:10:12;;;;;;;5.97;3.10;;;;;;;6.57;79.41;98809.00;1756829;81;21304;-92
2021/01/07 10:12:40;;;;;;;7.65;3.20;;;;;;;6.57;78.76;98807.27;1769241;80;21160;-93
2021/01/07 10:15:09;;;;;;;7.17;3.40;;;;;;;6.67;78.79;98816.19;1738638;81;21478;-93
2021/01/07 10:17:37;;;;;;;6.80;3.35;;;;;;;6.80;77.43;98805.23;1777189;79;21283;-93
2021/01/07 10:20:08;;;;;;;5.55;2.70;;;;;;;6.70;77.94;98772.21;1801823;77;21165;-94
2021/01/07 10:22:41;;;;;;;7.03;2.98;;;;;;;7.02;78.51;98804.47;1756095;77;21331;-92
2021/01/07 10:25:16;;;;;;;8.50;3.02;;;;;;;6.80;76.40;98789.73;1748896;81;21186;-92
2021/01/07 10:27:44;;;;;;;8.55;2.50;;;;;;;6.91;77.33;98793.86;1758800;78;21159;-94
2021/01/07 10:30:13;;;;;;;4.83;2.60;;;;;;;6.86;76.63;98790.92;1780400;80;21301;-94
2021/01/07 10:32:41;;;;;;;8.55;3.55;;;;;;;6.90;78.03;98784.42;1748902;78;21280;-94
2021/01/07 10:35:10;;;;;;;5.92;3.15;;;;;;;6.83;76.41;98787.11;1763713;79;21198;-92
2021/01/07 10:37:38;;;;;;;7.42;3.62;;;;;;;6.75;76.50;98792.39;1719440;82;21273;-92
2021/01/07 10:40:12;;;;;;;5.45;3.12;;;;;;;6.84;76.96;98798.70;1763285;81;21279;-92
2021/01/07 10:42:42;;;;;;;6.35;3.27;;;;;;;6.69;76.45;98800.23;1697664;78;21356;-92
2021/01/07 10:45:13;;;;;;;12.15;3.50;;;;;;;6.77;76.86;98789.34;1765368;78;21291;-95
2021/01/07 10:48:16;;;;;;;;;;;;;;;;;;;;;
2021/01/07 10:51:03;;;;;;;6.78;3.55;;;;;;;6.85;76.83;98766.83;1570124;87;21548;-94
2021/01/07 10:56:24;;;;;;;4.75;2.52;;;;;;;7.19;75.83;98783.54;1704474;83;21509;-94
2021/01/07 10:59:25;;;;;;;8.75;3.00;;;;;;;7.05;73.30;98756.62;1641073;86;21264;-93
2021/01/07 11:02:41;;;;;;;5.92;2.30;;;;;;;7.34;72.67;98794.90;1689931;83;21544;-92
2021/01/07 11:05:37;;;;;;;7.17;2.58;;;;;;;7.13;65.48;98796.13;1597045;89;21251;-92
2021/01/07 11:17:28;;;;;;;11.08;2.80;;;;;;;7.19;70.16;98797.31;1708335;83;21354;-92
2021/01/07 11:20:01;;;;;;;13.48;3.20;;;;;;;7.18;68.30;98799.47;1733035;78;21263;-93
2021/01/07 11:22:33;;;;;;;7.72;3.42;;;;;;;7.22;70.04;98796.40;1717871;77;21305;-90
2021/01/07 11:25:03;;;;;;;7.55;3.90;;;;;;;7.15;68.24;98799.53;1675055;82;21270;-93
2021/01/07 11:27:32;;;;;;;12.53;2.50;;;;;;;7.05;67.82;98791.52;1725446;81;21263;-93
2021/01/07 11:30:11;;;;;;;5.05;2.40;;;;;;;7.15;69.34;98804.26;1701022;82;21193;-91
2021/01/07 11:32:39;;;;;;;12.95;3.00;;;;;;;7.14;66.33;98798.69;1762047;81;21306;-91
2021/01/07 11:35:09;;;;;;;8.63;2.87;;;;;;;7.03;63.53;98809.63;1726289;81;21504;-91
2021/01/07 11:41:08;;;;;;;8.33;2.90;;;;;;;7.17;64.65;98803.80;1695171;83;21320;-91
2021/01/07 11:44:18;;;;;;;6.75;2.85;;;;;;;7.21;65.32;98804.60;1702534;82;21173;-92
2021/01/07 11:47:11;;;;;;;10.03;3.02;;;;;;;7.20;63.88;98803.33;1731638;81;21143;-95
2021/01/07 11:49:41;;;;;;;6.45;2.60;;;;;;;7.46;64.94;98796.42;1769111;78;21884;-92
2021/01/07 11:52:15;;;;;;;6.78;2.83;;;;;;;7.68;64.48;98788.72;1702869;81;21203;-93
2021/01/07 11:55:00;;;;;;;4.40;2.10;;;;;;;7.83;62.45;98791.45;1704652;82;21193;-92
2021/01/07 11:57:32;;;;;;;5.17;2.58;;;;;;;7.96;62.16;98794.22;1704755;79;21168;-93
2021/01/07 12:00:04;;;;;;;4.20;2.00;;;;;;;8.08;63.52;98789.25;1741173;80;21295;-93
2021/01/07 12:02:33;;;;;;;6.30;2.00;;;;;;;8.69;62.28;98794.89;1746794;81;21743;-91
2021/01/07 12:08:36;;;;;;;4.78;2.02;;;;;;;9.29;55.18;98793.93;1740726;81;21590;-92
2021/01/07 12:11:06;;;;;;;3.22;1.90;;;;;;;9.15;55.87;98804.22;1743305;81;21278;-93
2021/01/07 12:14:04;;;;;;;10.00;2.50;;;;;;;9.67;54.02;98802.48;1763351;80;21298;-93
2021/01/07 12:16:38;;;;;;;4.00;2.20;;;;;;;9.64;53.49;98798.69;1760778;80;21300;-93
2021/01/07 12:19:06;;;;;;;;;;;;;;;9.78;55.25;98787.48;1730843;81;21319;-93
2021/01/07 12:21:36;;;;;;;4.65;2.00;;;;;;;10.19;57.75;98791.16;1729943;81;20262;-92
2021/01/07 12:24:08;;;;;;;4.45;2.30;;;;;;;10.45;55.46;98791.28;1711225;82;21274;-91
2021/01/07 12:26:36;;;;;;;12.43;2.50;;;;;;;10.44;56.37;98797.81;1691019;83;21198;-91
2021/01/07 12:29:05;;;;;;;5.45;2.77;;;;;;;10.83;54.75;98806.17;1685766;83;21313;-91
2021/01/07 12:31:34;;;;;;;7.12;2.10;;;;;;;10.82;54.11;98799.70;1707418;83;21169;-87
2021/01/07 12:34:15;;;;;;;5.37;2.40;;;;;;;10.73;52.87;98799.55;1681415;83;21319;-86
2021/01/07 12:36:55;;;;;;;10.45;2.58;;;;;;;10.74;51.47;98807.31;1658433;85;21288;-87
2021/01/07 12:39:44;;;;;;;9.43;2.42;;;;;;;10.53;54.27;98794.50;1706793;83;21128;-89
2021/01/07 12:42:17;;;;;;;5.08;2.70;;;;;;;10.28;54.67;98799.97;1696152;84;21117;-87
2021/01/07 12:44:48;;;;;;;15.23;3.25;;;;;;;10.35;54.21;98801.55;1706983;82;21228;-89
2021/01/07 12:47:16;;;;;;;4.83;2.70;;;;;;;10.50;53.10;98801.53;1709284;83;21277;-83
2021/01/07 12:49:45;;;;;;;6.37;2.35;;;;;;;10.52;51.82;98814.03;1724171;82;21167;-84
2021/01/07 12:52:13;;;;;;;8.23;3.33;;;;;;;10.79;54.02;98812.36;1718828;82;21165;-86
2021/01/07 12:54:41;;;;;;;7.97;2.52;;;;;;;10.69;54.42;98814.84;1719344;82;21331;-83
2021/01/07 12:57:22;;;;;;;5.95;2.35;;;;;;;10.12;50.90;98809.48;1713486;83;21343;-85
2021/01/07 13:00:07;;;;;;;4.60;2.17;;;;;;;9.70;54.64;98809.75;1721576;83;21276;-85
2021/01/07 13:03:10;;;;;;;15.28;2.87;;;;;;;8.72;54.45;98806.50;1719951;83;21225;-85
2021/01/07 13:05:41;;;;;;;11.63;4.62;;;;;;;8.53;56.57;98811.24;1716041;83;21303;-84
2021/01/07 13:08:10;;;;;;;6.72;2.10;;;;;;;8.08;55.96;98810.41;1715154;83;21306;-84
2021/01/07 13:10:38;;;;;;;5.60;2.20;;;;;;;7.80;57.14;98781.59;1724965;83;21266;-84
2021/01/07 13:13:07;;;;;;;5.33;3.30;;;;;;;7.76;57.46;98812.72;1720294;83;21279;-82
2021/01/07 13:15:35;;;;;;;5.00;2.25;;;;;;;7.39;57.49;98810.36;1699174;85;21323;-85
2021/01/07 13:18:02;;;;;;;6.45;2.17;;;;;;;7.13;57.64;98801.30;1724971;83;21248;-87
2021/01/07 13:20:31;;;;;;;5.10;2.10;;;;;;;7.07;58.17;98816.45;1687031;83;21220;-87
2021/01/07 13:22:59;;;;;;;9.63;2.83;;;;;;;6.95;58.52;98812.77;1657827;85;21189;-88
2021/01/07 13:25:29;;;;;;;6.72;2.35;;;;;;;6.84;59.21;98821.11;1668807;84;21229;-86
2021/01/07 13:27:56;;;;;;;8.78;2.95;;;;;;;6.63;59.64;98814.53;1683523;84;21300;-84
2021/01/07 13:30:28;;;;;;;3.90;2.02;;;;;;;6.61;59.85;98813.69;1708407;80;21611;-84
2021/01/07 13:32:59;;;;;;;9.43;2.50;;;;;;;6.42;60.53;98826.83;1739164;81;21289;-87
2021/01/07 13:35:32;;;;;;;7.08;3.00;;;;;;;6.38;61.11;98827.30;1675660;82;21432;-82
2021/01/07 13:38:02;;;;;;;7.53;2.52;;;;;;;6.29;61.07;98824.84;1657244;84;21565;-89
2021/01/07 13:40:30;;;;;;;8.35;2.60;;;;;;;6.20;61.29;98825.39;1694959;82;21253;-85
2021/01/07 13:43:01;;;;;;;4.10;1.90;;;;;;;6.08;61.28;98819.93;1661344;82;21457;-85
2021/01/07 13:45:33;;;;;;;7.85;2.77;;;;;;;6.11;61.43;98837.53;1683255;83;21293;-84
2021/01/07 13:48:02;;;;;;;14.95;2.65;;;;;;;6.08;61.70;98834.13;1739281;81;21263;-83
2021/01/07 13:50:34;;;;;;;7.53;2.62;;;;;;;6.03;62.00;98825.16;1657773;84;21280;-84
2021/01/07 13:53:04;;;;;;;7.17;3.10;;;;;;;6.04;62.27;98826.00;1691979;83;21260;-83
2021/01/07 13:55:34;;;;;;;4.08;2.70;;;;;;;6.03;62.64;98839.34;1706601;83;21229;-83
2021/01/07 13:58:03;;;;;;;5.33;2.50;;;;;;;6.00;62.89;98846.27;1710008;83;21314;-83
2021/01/07 14:00:33;;;;;;;8.30;3.27;;;;;;;5.97;62.76;98858.77;1708300;82;21251;-82
2021/01/07 14:03:03;;;;;;;6.00;2.50;;;;;;;5.96;63.04;98851.44;1715629;82;21275;-81
2021/01/07 14:05:35;;;;;;;4.83;2.90;;;;;;;5.96;63.29;98855.75;1734644;79;21285;-84
2021/01/07 14:08:18;;;;;;;11.70;2.87;;;;;;;5.93;63.32;98864.80;1650306;85;21694;-85
2021/01/07 14:10:49;;;;;;;6.92;3.20;;;;;;;5.88;62.69;98868.69;1675777;85;21295;-85
2021/01/07 14:13:18;;;;;;;9.28;2.70;;;;;;;5.90;63.30;98869.97;1669850;85;21249;-81
2021/01/07 14:15:47;;;;;;;4.70;2.75;;;;;;;5.86;62.84;98874.75;1669228;85;21287;-83
2021/01/07 14:18:15;;;;;;;9.25;2.83;;;;;;;5.83;62.96;98875.64;1665382;84;21222;-86
2021/01/07 14:20:44;;;;;;;6.12;3.10;;;;;;;5.81;63.51;98876.50;1663764;85;21181;-86
2021/01/07 14:23:13;;;;;;;7.70;2.42;;;;;;;5.77;63.35;98871.39;1668337;84;21283;-82
2021/01/07 14:25:43;;;;;;;10.50;3.25;;;;;;;5.70;63.07;98886.48;1663436;85;21260;-82
2021/01/07 14:28:18;;;;;;;5.70;2.27;;;;;;;5.67;63.54;98877.50;1647562;86;21280;-83
2021/01/07 14:30:47;;;;;;;9.60;2.62;;;;;;;5.60;63.22;98874.55;1662458;84;21328;-80
2021/01/07 14:33:17;;;;;;;7.22;3.10;;;;;;;5.56;63.34;98880.59;1617659;87;21307;-83
2021/01/07 14:35:48;;;;;;;12.00;6.28;;;;;;;5.50;63.55;98884.08;1636310;86;21276;-83
2021/01/07 14:38:16;;;;;;;7.72;3.15;;;;;;;5.45;64.01;98890.13;1602517;88;21315;-83
2021/01/07 14:40:44;;;;;;;10.50;3.55;;;;;;;5.41;64.08;98894.45;1632118;86;21339;-83
2021/01/07 14:43:13;;;;;;;11.70;4.00;;;;;;;5.36;64.08;98902.67;1632164;86;21129;-81
2021/01/07 14:45:44;;;;;;;7.85;3.15;;;;;;;5.32;64.47;98899.25;1635703;86;21300;-83
2021/01/07 14:48:12;;;;;;;7.30;2.87;;;;;;;5.29;64.68;98903.16;1635765;86;22451;-83
2021/01/07 14:50:41;;;;;;;6.42;2.83;;;;;;;5.27;64.54;98911.34;1631940;88;21315;-82
2021/01/07 14:53:22;;;;;;;7.33;3.12;;;;;;;5.21;64.71;98911.34;1599106;88;21174;-82
2021/01/07 14:55:52;;;;;;;13.68;4.58;;;;;;;5.17;64.66;98913.11;1615311;88;21211;-83
2021/01/07 14:58:42;;;;;;;6.25;2.60;;;;;;;5.13;65.12;98914.41;1636979;86;21373;-83
2021/01/07 15:01:13;;;;;;;4.53;2.47;;;;;;;5.08;65.03;98920.04;1632902;88;21316;-82
2021/01/07 15:04:11;;;;;;;12.28;3.75;;;;;;;5.05;65.50;98927.77;1629318;86;21323;-83
2021/01/07 15:06:51;;;;;;;7.15;2.72;;;;;;;4.98;66.02;98928.25;1610609;88;21163;-82
2021/01/07 15:09:27;;;;;;;7.97;2.70;;;;;;;4.95;65.87;98927.84;1645322;87;21294;-83
2021/01/07 15:12:15;;;;;;;13.18;3.62;;;;;;;4.92;65.93;98922.69;1653936;87;21256;-85
2021/01/07 15:14:54;;;;;;;13.58;4.05;;;;;;;4.91;66.19;98927.40;1653690;85;21244;-83
2021/01/07 15:17:44;;;;;;;7.05;3.17;;;;;;;4.92;66.49;98926.55;1675509;84;21306;-81
2021/01/07 15:20:23;;;;;;;7.00;2.95;;;;;;;4.94;66.04;98929.98;1674607;84;21257;-83
2021/01/07 15:23:37;;;;;;;12.20;3.40;;;;;;;5.04;66.37;98933.80;1832938;76;23085;-87
2021/01/07 15:26:06;;;;;;;6.35;3.58;;;;;;;4.98;66.32;98932.96;1802665;75;21250;-84
2021/01/07 15:28:59;;;;;;;14.07;3.35;;;;;;;5.01;66.10;98942.39;1807220;78;21228;-83
2021/01/07 15:31:32;;;;;;;14.35;4.42;;;;;;;5.03;66.18;98942.38;1784617;78;21264;-84
2021/01/07 15:34:06;;;;;;;10.40;4.58;;;;;;;5.04;66.30;98944.96;1818016;78;21255;-84
2021/01/07 15:37:00;;;;;;;6.45;2.85;;;;;;;5.06;66.52;98950.11;1808110;78;21271;-84
2021/01/07 15:39:45;;;;;;;14.20;3.90;;;;;;;5.04;66.37;98949.27;1816484;77;21551;-82
2021/01/07 15:42:38;;;;;;;8.45;3.98;;;;;;;5.04;66.37;98953.12;1786010;78;21271;-83
2021/01/07 15:46:01;;;;;;;13.90;4.45;;;;;;;5.04;66.13;98968.59;1819870;77;21224;-84
2021/01/07 15:49:20;;;;;;;10.35;3.80;;;;;;;5.03;66.36;98968.16;1796361;78;21506;-84
2021/01/07 15:51:54;;;;;;;9.95;4.92;;;;;;;5.02;66.67;98971.61;1812598;76;21216;-83
2021/01/07 15:54:39;;;;;;;13.53;6.42;;;;;;;5.00;67.01;98971.61;1798203;79;21243;-83
2021/01/07 15:57:57;;;;;;;12.75;7.30;;;;;;;4.97;67.23;98977.64;1754931;77;21310;-90
2021/01/07 16:00:29;;;;;;;15.28;6.90;;;;;;;4.97;67.30;98971.20;1772072;79;21275;-87
2021/01/07 16:03:03;;;;;;;15.80;7.00;;;;;;;4.98;67.48;98979.77;1764802;80;21278;-84
2021/01/07 16:05:33;;;;;;;19.00;7.53;;;;;;;4.97;67.76;98976.76;1764081;80;21247;-84
2021/01/07 16:08:09;;;;;;;20.43;7.65;;;;;;;4.95;68.13;98978.48;1768748;80;21255;-84
2021/01/07 16:10:39;;;;;;;23.35;11.43;;;;;;;4.91;68.67;98978.92;1772163;80;21290;-82
2021/01/07 16:13:07;;;;;;;21.12;9.05;;;;;;;4.89;68.06;98978.52;1763884;80;21548;-84
2021/01/07 16:15:37;;;;;;;20.80;9.18;;;;;;;4.87;68.53;98987.97;1772937;80;21244;-83
2021/01/07 16:18:05;;;;;;;14.13;7.10;;;;;;;4.86;68.50;98987.56;1765316;80;21290;-84
2021/01/07 16:20:34;;;;;;;11.35;5.75;;;;;;;4.83;68.59;98985.83;1724236;82;21303;-82
2021/01/07 16:23:09;;;;;;;15.53;6.60;;;;;;;4.83;68.46;98992.70;1725383;81;21121;-83
2021/01/07 16:25:55;;;;;;;17.55;7.37;;;;;;;4.83;68.64;99000.44;1716710;81;21263;-84
2021/01/07 16:28:23;;;;;;;11.20;5.72;;;;;;;4.83;69.54;99000.44;1691869;81;21291;-84
2021/01/07 16:30:54;;;;;;;9.68;4.30;;;;;;;4.79;69.47;99004.73;1726222;82;21138;-86
2021/01/07 16:33:23;;;;;;;12.03;4.25;;;;;;;4.75;69.55;99012.89;1814961;79;21566;-83
2021/01/07 16:35:53;;;;;;;12.78;4.72;;;;;;;4.75;69.47;99018.48;1803774;79;21238;-83
2021/01/07 16:38:22;;;;;;;11.03;4.97;;;;;;;4.75;69.74;99030.08;1813246;79;21662;-83
2021/01/07 16:40:55;;;;;;;8.80;3.30;;;;;;;4.68;70.70;99033.11;1780790;79;21257;-85
2021/01/07 16:43:24;;;;;;;7.33;3.98;;;;;;;4.75;71.11;99041.22;1816769;79;21227;-83
2021/01/07 16:45:51;;;;;;;7.87;3.42;;;;;;;4.73;71.32;99039.52;1781864;79;21532;-87
2021/01/07 16:48:20;;;;;;;9.45;4.35;;;;;;;4.73;70.83;99035.66;1721690;83;21582;-89
2021/01/07 16:50:47;;;;;;;9.40;3.83;;;;;;;4.75;70.90;99040.37;1721346;81;21153;-87
2021/01/07 16:53:16;;;;;;;12.58;6.12;;;;;;;4.73;71.11;99038.23;1685036;85;21193;-89
2021/01/07 16:55:44;;;;;;;9.13;4.50;;;;;;;4.72;70.96;99038.67;1702853;82;21264;-83
2021/01/07 16:58:11;;;;;;;10.55;5.00;;;;;;;4.71;70.86;99044.67;1754049;82;21296;-82
2021/01/07 17:00:41;;;;;;;8.10;4.58;;;;;;;4.71;71.02;99048.97;1754235;81;21288;-83
2021/01/07 17:03:10;;;;;;;9.75;5.30;;;;;;;4.71;70.74;99054.13;1753693;82;21598;-83
2021/01/07 17:05:39;;;;;;;7.45;4.20;;;;;;;4.67;71.54;99049.41;1755026;81;21269;-82
2021/01/07 17:08:07;;;;;;;9.68;4.00;;;;;;;4.63;72.37;99044.27;1755774;82;21720;-84
2021/01/07 17:10:35;;;;;;;8.35;3.47;;;;;;;4.57;72.28;99047.27;1755803;82;21280;-82
2021/01/07 17:13:03;;;;;;;8.43;3.25;;;;;;;4.56;71.16;99051.16;1755535;80;21272;-82
2021/01/07 17:15:31;;;;;;;6.80;2.85;;;;;;;4.57;71.23;99055.00;1755850;80;21280;-81
2021/01/07 17:17:59;;;;;;;5.12;2.52;;;;;;;4.58;71.47;99049.44;1756402;80;21252;-82
2021/01/07 17:20:28;;;;;;;4.35;2.58;;;;;;;4.32;71.21;99018.16;1755770;81;21248;-83
2021/01/07 17:22:56;;;;;;;6.33;3.20;;;;;;;4.49;71.10;99051.58;1756450;82;21293;-82
2021/01/07 17:25:24;;;;;;;6.87;3.52;;;;;;;4.45;70.91;99056.30;1755726;82;21299;-82
2021/01/07 17:27:52;;;;;;;5.75;2.85;;;;;;;4.40;70.72;99064.48;1757870;80;21289;-81
2021/01/07 17:30:20;;;;;;;8.63;3.98;;;;;;;4.35;70.29;99063.61;1756890;81;21287;-82
2021/01/07 17:32:48;;;;;;;9.43;4.60;;;;;;;4.31;70.19;99067.90;1753828;82;21263;-83
2021/01/07 17:35:16;;;;;;;13.95;5.40;;;;;;;4.26;70.83;99064.89;1756705;81;21146;-83
2021/01/07 17:37:43;;;;;;;16.73;7.60;;;;;;;4.22;70.42;99060.60;1773315;78;21321;-86
2021/01/07 17:40:12;;;;;;;18.75;8.53;;;;;;;4.10;71.70;99051.16;1815631;79;21210;-86
2021/01/07 17:42:40;;;;;;;20.27;9.28;;;;;;;4.01;72.77;99053.31;1815543;77;21151;-83
2021/01/07 17:45:09;;;;;;;28.20;13.10;;;;;;;3.94;72.26;99052.47;1823251;77;21282;-86
2021/01/07 17:47:36;;;;;;;23.80;13.98;;;;;;;3.81;73.61;99063.58;1821085;79;21285;-85
2021/01/07 17:50:06;;;;;;;16.10;6.47;;;;;;;3.73;73.56;99061.43;1820028;79;21743;-88
2021/01/07 17:52:34;;;;;;;13.22;5.85;;;;;;;3.70;73.13;99052.41;1827708;79;21289;-85
2021/01/07 17:55:03;;;;;;;10.65;5.42;;;;;;;3.67;73.64;99056.28;1826190;78;21194;-85
2021/01/07 17:57:31;;;;;;;11.10;5.67;;;;;;;3.63;73.50;99054.13;1805772;78;21255;-91
2021/01/07 17:59:59;;;;;;;10.75;5.53;;;;;;;3.62;73.31;99058.85;1780040;80;21573;-90
2021/01/07 18:02:27;;;;;;;17.17;6.60;;;;;;;3.59;73.69;99063.53;1786248;80;21293;-84
2021/01/07 18:04:55;;;;;;;15.97;6.23;;;;;;;3.56;73.71;99056.23;1811450;78;21177;-88
2021/01/07 18:07:23;;;;;;;15.40;6.17;;;;;;;3.54;73.88;99056.66;1809472;77;21102;-88
2021/01/07 18:09:51;;;;;;;15.98;6.22;;;;;;;3.48;73.37;99065.23;1812641;77;21174;-89
2021/01/07 18:12:18;;;;;;;14.25;6.30;;;;;;;3.45;72.96;99069.50;1816443;77;21482;-88
2021/01/07 18:14:46;;;;;;;16.85;6.70;;;;;;;3.43;72.48;99069.93;1810891;79;21511;-88
2021/01/07 18:17:14;;;;;;;16.45;6.72;;;;;;;3.42;72.55;99075.91;1808720;79;21155;-87
2021/01/07 18:19:42;;;;;;;16.67;7.95;;;;;;;3.37;72.44;99081.89;1812744;77;21464;-83
2021/01/07 18:22:10;;;;;;;16.85;7.33;;;;;;;3.31;72.96;99079.30;1806872;79;21175;-89
2021/01/07 18:24:38;;;;;;;30.82;11.73;;;;;;;3.24;73.27;99076.26;1820041;79;21293;-87
2021/01/07 18:27:06;;;;;;;32.13;13.35;;;;;;;3.15;73.38;99076.24;1812154;77;21279;-89
2021/01/07 18:29:33;;;;;;;22.35;9.05;;;;;;;3.07;73.38;99086.91;1820372;79;21306;-86
2021/01/07 18:32:01;;;;;;;19.40;7.37;;;;;;;2.87;73.57;99072.25;1823520;79;21270;-87
2021/01/07 18:34:29;;;;;;;32.75;12.93;;;;;;;2.88;73.24;99091.92;1822671;78;21238;-82
2021/01/07 18:36:58;;;;;;;21.37;10.75;;;;;;;2.77;73.95;99092.31;1819197;78;21256;-80
2021/01/07 18:39:26;;;;;;;22.32;9.45;;;;;;;2.69;74.22;99086.27;1812763;78;21247;-82
2021/01/07 18:41:53;;;;;;;32.55;12.55;;;;;;;2.63;74.82;99094.78;1817228;78;21265;-82
2021/01/07 18:44:23;;;;;;;31.23;12.78;;;;;;;2.57;74.93;99087.89;1821749;78;21256;-82
2021/01/07 18:46:51;;;;;;;22.82;9.58;;;;;;;2.52;75.26;99095.13;1829966;78;21206;-85
2021/01/07 18:49:20;;;;;;;20.32;9.53;;;;;;;2.44;76.83;99087.36;1807345;78;21302;-81
2021/01/07 18:51:47;;;;;;;17.02;7.80;;;;;;;2.41;76.59;99096.34;1778644;78;21086;-82
2021/01/07 18:54:16;;;;;;;21.82;9.33;;;;;;;2.38;76.22;99101.42;1772997;80;21290;-83
2021/01/07 18:56:49;;;;;;;25.97;11.70;;;;;;;2.35;76.02;99100.14;1750242;80;21079;-84
2021/01/07 18:59:19;;;;;;;35.17;16.30;;;;;;;2.30;76.24;99096.66;1752495;80;21258;-85
2021/01/07 19:01:47;;;;;;;39.98;17.85;;;;;;;2.25;76.76;99101.77;1755790;80;21340;-86
2021/01/07 19:04:15;;;;;;;57.80;19.95;;;;;;;2.19;76.90;99096.59;1733601;80;21280;-85
2021/01/07 19:06:48;;;;;;;33.50;14.80;;;;;;;2.15;77.14;99108.52;1709684;80;21332;-86
2021/01/07 19:09:17;;;;;;;40.00;14.68;;;;;;;2.10;76.99;99101.63;1768205;79;21137;-84
2021/01/07 19:11:50;;;;;;;23.60;9.18;;;;;;;2.05;77.26;99097.75;1771655;79;21513;-86
2021/01/07 19:14:20;;;;;;;26.25;9.13;;;;;;;2.01;77.65;99104.09;1748358;78;21240;-83
2021/01/07 19:16:48;;;;;;;25.85;10.80;;;;;;;1.95;78.77;99104.48;1734886;81;21134;-82
2021/01/07 19:19:22;;;;;;;37.48;13.05;;;;;;;1.92;79.24;99098.47;1737187;81;21240;31
2021/01/07 19:24:54;;;;;;;19.85;8.95;;;;;;;1.89;80.23;99086.88;1663533;78;21308;31
2021/01/07 19:27:35;;;;;;;21.55;8.13;;;;;;;1.90;78.39;99086.91;1700742;78;21275;31
2021/01/07 19:30:05;;;;;;;19.87;8.60;;;;;;;1.91;77.89;99089.04;1688272;81;21158;-82
2021/01/07 19:32:33;;;;;;;25.65;9.85;;;;;;;1.95;78.13;99089.50;1683992;82;21161;-82
2021/01/07 19:35:09;;;;;;;46.35;13.75;;;;;;;1.95;78.87;99087.82;1695516;78;21220;31
2021/01/07 19:37:41;;;;;;;41.85;15.90;;;;;;;1.99;78.38;99082.30;1645310;84;21195;-83
2021/01/07 19:40:09;;;;;;;36.83;14.35;;;;;;;2.00;78.36;99077.59;1682416;84;21851;-88
2021/01/07 19:42:37;;;;;;;39.98;14.33;;;;;;;1.95;79.74;99070.27;1669467;84;21275;-85
2021/01/07 19:45:06;;;;;;;41.58;14.47;;;;;;;2.03;79.40;99076.36;1642367;85;21307;-82
2021/01/07 19:47:34;;;;;;;32.75;13.72;;;;;;;2.03;79.18;99080.20;1665090;84;21164;-86
2021/01/07 19:50:05;;;;;;;32.83;13.55;;;;;;;2.04;80.23;99088.75;1669523;84;21334;-88
2021/01/07 19:52:33;;;;;;;39.58;14.55;;;;;;;2.04;79.31;99093.45;1648696;85;21334;-85
2021/01/07 19:55:04;;;;;;;32.10;14.23;;;;;;;2.05;79.04;99096.86;1675183;84;21128;-82